Time;durP1;ratioP1;P1;durP2;ratioP2;P2;SDS_P1;SDS_P2;PMS_P1;PMS_P2;Temp;Humidity;BMP_temperature;BMP_pressure;BME280_temperature;BME280_humidity;BME280_pressure;Samples;Min_cycle;Max_cycle;Signal;HPM_P1;HPM_P2
2021/10/08 00:01:18;;;;;;;6.78;6.07;;;;;;;12.87;69.85;102257.44;5010859;28;20511;-43
2021/10/08 00:03:43;;;;;;;6.80;6.10;;;;;;;12.88;69.67;102248.66;5012753;28;20164;-42
2021/10/08 00:06:09;;;;;;;6.40;5.80;;;;;;;12.89;69.89;102254.81;5012186;28;20037;-42
2021/10/08 00:08:34;;;;;;;6.90;6.28;;;;;;;12.88;69.85;102253.03;5011788;28;20029;-42
2021/10/08 00:10:59;;;;;;;6.63;5.93;;;;;;;12.88;69.83;102253.94;5012022;28;20064;-42
2021/10/08 00:13:25;;;;;;;7.20;6.45;;;;;;;12.87;69.73;102262.75;5011225;28;20021;-43
2021/10/08 00:15:50;;;;;;;6.75;5.60;;;;;;;12.87;70.01;102260.09;5011293;28;20029;-43
2021/10/08 00:18:15;;;;;;;6.38;5.78;;;;;;;12.86;69.73;102253.03;5011587;28;20018;-42
2021/10/08 00:20:40;;;;;;;6.40;5.80;;;;;;;12.87;69.87;102259.22;5011969;28;20014;-42
2021/10/08 00:23:06;;;;;;;6.97;6.28;;;;;;;12.86;69.70;102255.69;5009615;28;20034;-42
2021/10/08 00:25:31;;;;;;;6.72;6.10;;;;;;;12.86;69.66;102250.38;5009935;28;20049;-42
2021/10/08 00:27:57;;;;;;;7.45;6.00;;;;;;;12.85;69.81;102253.03;5011098;28;20029;-42
2021/10/08 00:30:24;;;;;;;6.93;6.38;;;;;;;12.85;69.86;102245.97;5009596;28;20089;-44
2021/10/08 00:32:49;;;;;;;7.63;6.85;;;;;;;12.86;69.62;102258.31;5010943;28;20472;-43
2021/10/08 00:35:15;;;;;;;6.40;5.80;;;;;;;12.86;69.73;102255.69;5011665;28;20080;-41
2021/10/08 00:37:41;;;;;;;6.28;5.75;;;;;;;12.85;69.56;102248.63;5009962;28;20029;-42
2021/10/08 00:40:06;;;;;;;6.70;6.10;;;;;;;12.85;69.63;102247.72;5011690;28;20010;-42
2021/10/08 00:42:33;;;;;;;7.18;6.40;;;;;;;12.85;69.50;102253.03;5011332;28;20506;-42
2021/10/08 00:44:59;;;;;;;6.93;6.22;;;;;;;12.85;69.73;102245.97;5009903;28;20037;-43
2021/10/08 00:47:24;;;;;;;6.55;5.57;;;;;;;12.84;69.66;102238.91;5008552;28;20396;-43
2021/10/08 00:49:49;;;;;;;7.22;5.70;;;;;;;12.84;69.55;102236.25;5011301;28;20080;-42
2021/10/08 00:52:15;;;;;;;6.93;6.22;;;;;;;12.84;69.79;102236.25;5011158;28;20080;-43
2021/10/08 00:54:40;;;;;;;6.30;5.63;;;;;;;12.82;69.80;102233.59;5011295;28;20105;-43
2021/10/08 00:57:05;;;;;;;6.22;5.63;;;;;;;12.83;69.65;102237.13;5010768;28;20112;-43
2021/10/08 00:59:36;;;;;;;5.72;5.22;;;;;;;12.83;69.52;102235.38;5010987;28;20060;-43
2021/10/08 01:02:02;;;;;;;6.65;6.03;;;;;;;12.83;69.60;102239.75;5010750;28;20033;-42
2021/10/08 01:04:28;;;;;;;6.15;5.43;;;;;;;12.82;69.50;102238.00;5011292;28;20037;-42
2021/10/08 01:06:53;;;;;;;6.80;6.20;;;;;;;12.82;69.57;102243.31;5006553;28;20030;-42
2021/10/08 01:09:20;;;;;;;6.35;5.75;;;;;;;12.81;69.61;102237.09;5010749;28;20061;-42
2021/10/08 01:11:45;;;;;;;6.85;6.13;;;;;;;12.81;69.53;102236.25;5009797;28;20034;-43
2021/10/08 01:14:12;;;;;;;6.93;6.32;;;;;;;12.81;69.62;102236.25;5010233;28;20079;-42
2021/10/08 01:16:37;;;;;;;6.45;5.80;;;;;;;12.81;69.61;102241.53;5011175;28;20025;-43
2021/10/08 01:19:02;;;;;;;6.82;6.22;;;;;;;12.81;69.81;102241.53;5007959;28;20028;-42
2021/10/08 01:21:28;;;;;;;6.38;5.60;;;;;;;12.81;69.73;102237.09;5010797;28;20026;-42
2021/10/08 01:23:54;;;;;;;6.82;6.20;;;;;;;12.80;69.82;102234.44;5011182;28;20104;-43
2021/10/08 01:26:19;;;;;;;6.85;5.28;;;;;;;12.81;69.74;102233.59;5010827;28;20050;-43
2021/10/08 01:28:44;;;;;;;6.40;5.80;;;;;;;12.80;69.51;102226.50;5010286;28;20068;-43
2021/10/08 01:31:11;;;;;;;7.07;6.03;;;;;;;12.80;69.78;102240.63;5010808;28;20010;-42
2021/10/08 01:33:36;;;;;;;5.63;5.03;;;;;;;12.78;69.64;102239.75;5010447;28;20379;-43
2021/10/08 01:36:02;;;;;;;6.35;5.85;;;;;;;12.80;69.51;102239.75;5011086;28;20026;-42
2021/10/08 01:38:27;;;;;;;6.57;5.97;;;;;;;12.80;69.69;102242.38;5010210;28;20064;-43
2021/10/08 01:40:52;;;;;;;6.40;5.80;;;;;;;12.79;69.53;102237.97;5009377;28;20013;-42
2021/10/08 01:43:18;;;;;;;6.63;5.38;;;;;;;12.78;69.79;102241.50;5010945;28;20036;-43
2021/10/08 01:45:43;;;;;;;6.28;5.72;;;;;;;12.78;69.63;102237.13;5007645;28;20120;-43
2021/10/08 01:48:08;;;;;;;5.93;5.43;;;;;;;12.76;69.87;102233.56;5010641;28;20069;-43
2021/10/08 01:50:33;;;;;;;5.97;5.38;;;;;;;12.76;69.48;102230.00;5010442;28;20029;-43
2021/10/08 01:52:59;;;;;;;6.78;6.18;;;;;;;12.77;69.70;102234.44;5009730;28;20026;-42
2021/10/08 01:55:25;;;;;;;6.75;6.05;;;;;;;12.76;69.76;102240.59;5010107;28;20121;-42
2021/10/08 01:57:50;;;;;;;6.32;5.72;;;;;;;12.77;69.51;102234.44;5009816;28;20575;-42
2021/10/08 02:00:16;;;;;;;5.82;5.32;;;;;;;12.77;69.64;102234.44;5009373;28;20022;-43
2021/10/08 02:02:41;;;;;;;6.60;5.97;;;;;;;12.76;69.59;102243.25;5010349;28;20030;-43
2021/10/08 02:05:07;;;;;;;6.45;5.85;;;;;;;12.76;69.51;102237.94;5013769;28;20072;-42
2021/10/08 02:07:32;;;;;;;6.53;5.93;;;;;;;12.74;69.56;102232.63;5013732;28;20137;-42
2021/10/08 02:09:58;;;;;;;6.47;5.75;;;;;;;12.74;69.52;102232.63;5014516;28;20026;-42
2021/10/08 02:12:23;;;;;;;5.80;5.30;;;;;;;12.75;69.46;102239.72;5014315;28;20025;-42
2021/10/08 02:14:50;;;;;;;6.20;5.60;;;;;;;12.75;69.81;102230.88;5013240;28;20109;-43
2021/10/08 02:17:15;;;;;;;6.00;5.40;;;;;;;12.75;69.66;102228.25;5014166;28;20056;-42
2021/10/08 02:19:41;;;;;;;5.93;5.35;;;;;;;12.75;69.52;102236.19;5015382;28;20373;-42
2021/10/08 02:22:06;;;;;;;6.85;5.60;;;;;;;12.73;69.62;102230.00;5013246;28;20391;-42
2021/10/08 02:24:34;;;;;;;6.88;5.80;;;;;;;12.73;69.49;102238.81;5014080;28;20052;-42
2021/10/08 02:27:03;;;;;;;5.53;5.00;;;;;;;12.74;69.45;102240.59;5012566;28;20045;-42
2021/10/08 02:29:28;;;;;;;5.70;5.20;;;;;;;12.71;69.54;102251.19;5010188;28;20080;-42
2021/10/08 02:31:54;;;;;;;5.43;4.93;;;;;;;12.73;69.58;102245.91;5011450;28;20010;-43
2021/10/08 02:34:20;;;;;;;6.30;5.70;;;;;;;12.73;69.49;102248.53;5012249;28;20032;-43
2021/10/08 02:36:45;;;;;;;8.07;5.95;;;;;;;12.72;69.49;102247.66;5013419;28;20488;-43
2021/10/08 02:39:11;;;;;;;6.57;5.95;;;;;;;12.72;69.47;102241.44;5013350;28;20026;-43
2021/10/08 02:41:36;;;;;;;5.80;5.20;;;;;;;12.70;69.52;102242.34;5010359;28;20508;-43
2021/10/08 02:44:01;;;;;;;6.07;5.60;;;;;;;12.72;69.66;102244.09;5009329;28;20022;-43
2021/10/08 02:46:27;;;;;;;5.65;5.15;;;;;;;12.69;69.48;102248.53;5012862;28;20025;-43
2021/10/08 02:48:52;;;;;;;5.57;5.07;;;;;;;12.70;69.53;102244.97;5012348;28;20419;-43
2021/10/08 02:51:17;;;;;;;6.13;5.50;;;;;;;12.69;69.67;102253.81;5012490;28;20022;-43
2021/10/08 02:53:43;;;;;;;6.05;5.55;;;;;;;12.69;69.35;102248.53;5012683;28;20077;-43
2021/10/08 02:56:08;;;;;;;6.50;5.90;;;;;;;12.69;69.48;102245.88;5012334;28;20079;-43
2021/10/08 02:58:34;;;;;;;6.45;5.85;;;;;;;12.69;69.44;102247.63;5012011;28;20071;-43
2021/10/08 03:00:59;;;;;;;6.75;6.05;;;;;;;12.68;69.38;102246.72;5012553;28;20034;-43
2021/10/08 03:03:24;;;;;;;6.07;5.25;;;;;;;12.67;69.52;102242.31;5012731;28;20058;-43
2021/10/08 03:05:49;;;;;;;7.22;6.53;;;;;;;12.68;69.35;102251.16;5010587;28;20061;-43
2021/10/08 03:08:15;;;;;;;6.53;5.93;;;;;;;12.67;69.38;102254.69;5010468;28;20037;-43
2021/10/08 03:10:40;;;;;;;6.30;5.80;;;;;;;12.66;69.61;102253.78;5011839;28;20116;-43
2021/10/08 03:13:05;;;;;;;6.68;6.07;;;;;;;12.67;69.48;102257.31;5011503;28;20026;-43
2021/10/08 03:15:31;;;;;;;6.47;5.88;;;;;;;12.65;69.46;102244.06;5010115;28;20423;-43
2021/10/08 03:17:56;;;;;;;6.60;5.90;;;;;;;12.67;69.39;102254.69;5011761;28;20499;-43
2021/10/08 03:20:21;;;;;;;6.18;5.68;;;;;;;12.67;69.40;102250.25;5012734;28;20034;-43
2021/10/08 03:22:47;;;;;;;7.18;5.43;;;;;;;12.67;69.39;102252.03;5012880;28;20029;-43
2021/10/08 03:25:13;;;;;;;6.43;5.72;;;;;;;12.65;69.41;102249.38;5011505;28;20026;-42
2021/10/08 03:27:40;;;;;;;6.75;6.15;;;;;;;12.65;69.76;102252.03;5012038;28;20104;-42
2021/10/08 03:30:07;;;;;;;7.00;5.70;;;;;;;12.64;69.75;102252.88;5011922;28;20041;-42
2021/10/08 03:32:32;;;;;;;5.93;5.43;;;;;;;12.64;69.41;102258.16;5011219;28;20407;-42
2021/10/08 03:34:59;;;;;;;7.47;6.78;;;;;;;12.65;69.42;102251.13;5012596;28;20037;-42
2021/10/08 03:37:31;;;;;;;6.47;5.85;;;;;;;12.64;69.58;102255.50;5010866;28;20033;-42
2021/10/08 03:39:57;;;;;;;6.40;5.80;;;;;;;12.64;69.55;102255.50;5011657;28;20025;-42
2021/10/08 03:42:48;;;;;;;5.55;5.07;;;;;;;12.64;69.33;102260.81;5009527;28;20040;-43
2021/10/08 03:45:17;;;;;;;6.13;5.57;;;;;;;12.63;69.52;102269.63;4968982;28;20029;-42
2021/10/08 03:48:06;;;;;;;6.63;5.57;;;;;;;12.63;69.57;102258.16;5025961;28;20105;-43
2021/10/08 03:50:32;;;;;;;6.18;5.53;;;;;;;12.63;69.71;102263.44;5012324;28;20026;-41
2021/10/08 03:52:58;;;;;;;6.63;6.03;;;;;;;12.62;69.71;102256.38;5012272;28;20037;-41
2021/10/08 03:55:23;;;;;;;7.38;6.13;;;;;;;12.62;69.85;102267.88;5008075;28;20030;-43
2021/10/08 03:57:48;;;;;;;6.75;6.15;;;;;;;12.62;69.69;102272.25;5012238;28;20022;-42
2021/10/08 04:00:14;;;;;;;6.15;5.55;;;;;;;12.61;69.67;102266.09;5012073;28;20388;-42
2021/10/08 04:02:40;;;;;;;7.55;6.75;;;;;;;12.61;69.78;102260.81;5010699;28;20069;-43
2021/10/08 04:05:05;;;;;;;6.50;5.90;;;;;;;12.60;69.46;102266.97;5012162;28;20125;-42
2021/10/08 04:07:31;;;;;;;7.07;6.35;;;;;;;12.61;69.75;102274.06;5011240;28;20033;-42
2021/10/08 04:09:56;;;;;;;7.30;6.60;;;;;;;12.60;69.74;102274.91;5012247;28;20062;-42
2021/10/08 04:12:22;;;;;;;6.60;6.00;;;;;;;12.60;69.59;102277.53;5010795;28;20036;-42
2021/10/08 04:14:47;;;;;;;6.68;6.07;;;;;;;12.61;69.80;102282.00;5011791;28;20025;-41
2021/10/08 04:17:12;;;;;;;7.65;5.72;;;;;;;12.60;69.89;102272.25;5011271;28;20036;-42
2021/10/08 04:19:38;;;;;;;6.82;6.13;;;;;;;12.59;69.54;102270.47;5011728;28;20025;-42
2021/10/08 04:22:03;;;;;;;7.05;6.35;;;;;;;12.60;69.65;102279.31;5011683;28;20054;-45
2021/10/08 04:24:28;;;;;;;7.63;6.35;;;;;;;12.60;69.51;102282.84;5008585;28;20422;-42
2021/10/08 04:26:53;;;;;;;6.85;6.22;;;;;;;12.58;69.73;102274.00;5010594;28;20022;-41
2021/10/08 04:29:19;;;;;;;5.90;5.40;;;;;;;12.59;69.81;102278.44;5011273;28;20026;-41
2021/10/08 04:31:44;;;;;;;7.47;6.43;;;;;;;12.58;69.72;102276.66;5011805;28;20042;-42
2021/10/08 04:34:09;;;;;;;7.65;6.50;;;;;;;12.59;69.45;102283.72;5012162;28;20453;-42
2021/10/08 04:36:36;;;;;;;6.75;6.05;;;;;;;12.58;69.79;102279.31;5011485;28;20036;-43
2021/10/08 04:39:01;;;;;;;7.45;6.68;;;;;;;12.58;69.92;102282.81;5008833;28;20087;-42
2021/10/08 04:41:27;;;;;;;7.63;6.93;;;;;;;12.57;69.52;102281.06;5010760;28;20030;-42
2021/10/08 04:43:52;;;;;;;7.40;6.70;;;;;;;12.57;69.86;102285.44;5011605;28;20022;-42
2021/10/08 04:46:17;;;;;;;7.85;7.10;;;;;;;12.56;69.78;102288.97;5011766;28;20026;-42
2021/10/08 04:48:43;;;;;;;6.75;5.97;;;;;;;12.56;69.77;102288.97;5011194;28;20130;-42
2021/10/08 04:51:08;;;;;;;7.47;6.78;;;;;;;12.56;69.83;102294.28;5011155;28;20374;-42
2021/10/08 04:53:33;;;;;;;7.57;6.85;;;;;;;12.55;69.86;102295.16;5010298;28;20021;-43
2021/10/08 04:55:59;;;;;;;7.55;6.82;;;;;;;12.56;69.27;102299.56;5007749;28;20026;-43
2021/10/08 04:58:25;;;;;;;6.60;5.97;;;;;;;12.56;69.82;102302.22;5010016;28;20235;-42
2021/10/08 05:00:51;;;;;;;7.72;6.82;;;;;;;12.55;69.80;102301.34;5011227;28;20025;-42
2021/10/08 05:03:18;;;;;;;8.07;6.72;;;;;;;12.55;69.64;102305.75;5010813;28;20030;-42
2021/10/08 05:05:50;;;;;;;6.85;6.10;;;;;;;12.54;69.52;102301.34;5003429;28;20468;-43
2021/10/08 05:08:17;;;;;;;6.07;5.55;;;;;;;12.54;69.88;102302.19;5009942;28;20041;-43
2021/10/08 05:10:42;;;;;;;7.10;6.38;;;;;;;12.54;69.45;102306.63;5011123;28;20026;-42
2021/10/08 05:13:08;;;;;;;8.60;7.10;;;;;;;12.54;69.83;102306.63;5011586;28;20017;-42
2021/10/08 05:15:33;;;;;;;6.80;6.10;;;;;;;12.52;69.79;102308.34;5010579;28;20025;-42
2021/10/08 05:17:59;;;;;;;6.95;6.25;;;;;;;12.54;69.47;102311.91;5011311;28;20038;-43
2021/10/08 05:20:24;;;;;;;8.07;6.90;;;;;;;12.52;69.54;102311.91;5011301;28;20046;-43
2021/10/08 05:22:50;;;;;;;7.85;7.05;;;;;;;12.53;69.85;102308.38;5010861;28;20088;-42
2021/10/08 05:25:16;;;;;;;8.02;6.63;;;;;;;12.53;69.51;102320.72;5011080;28;20080;-42
2021/10/08 05:27:41;;;;;;;7.22;6.50;;;;;;;12.52;69.80;102317.19;5010397;28;20492;-43
2021/10/08 05:30:07;;;;;;;6.32;5.57;;;;;;;12.52;69.70;102311.00;5010895;28;20105;-42
2021/10/08 05:32:32;;;;;;;7.68;6.95;;;;;;;12.51;69.52;102323.34;5010835;28;20097;-41
2021/10/08 05:34:58;;;;;;;7.97;6.85;;;;;;;12.52;69.84;102319.84;5011343;28;20030;-42
2021/10/08 05:37:23;;;;;;;7.22;6.50;;;;;;;12.51;69.73;102311.88;5011595;28;20504;-43
2021/10/08 05:39:48;;;;;;;8.48;6.90;;;;;;;12.50;69.62;102316.28;5015095;28;20048;-42
2021/10/08 05:42:14;;;;;;;7.47;6.78;;;;;;;12.51;69.60;102327.75;5015143;28;20049;-43
2021/10/08 05:44:39;;;;;;;7.88;7.07;;;;;;;12.50;69.73;102326.00;5014929;28;20018;-43
2021/10/08 05:47:04;;;;;;;8.38;6.70;;;;;;;12.49;69.71;102322.44;5010606;28;20030;-42
2021/10/08 05:49:29;;;;;;;6.82;6.07;;;;;;;12.50;69.62;102326.00;5012670;28;20091;-43
2021/10/08 05:51:55;;;;;;;7.72;6.80;;;;;;;12.49;69.88;102329.50;5015014;28;20053;-43
2021/10/08 05:54:20;;;;;;;7.20;6.53;;;;;;;12.49;70.02;102327.75;5014949;28;20132;-43
2021/10/08 05:56:45;;;;;;;7.85;7.05;;;;;;;12.48;69.62;102330.38;5014672;28;20396;-42
2021/10/08 05:59:11;;;;;;;7.25;6.55;;;;;;;12.49;69.58;102335.69;5014322;28;20029;-43
2021/10/08 06:01:36;;;;;;;6.80;6.20;;;;;;;12.48;69.48;102331.28;5014780;28;20033;-42
2021/10/08 06:04:05;;;;;;;7.40;6.68;;;;;;;12.49;69.59;102329.50;5014611;28;20022;-43
2021/10/08 06:06:31;;;;;;;9.45;8.00;;;;;;;12.47;69.89;102341.84;5014547;28;20045;-42
2021/10/08 06:08:56;;;;;;;6.40;5.72;;;;;;;12.47;69.55;102333.91;5014381;28;20049;-42
2021/10/08 06:11:22;;;;;;;7.47;6.80;;;;;;;12.47;69.83;102339.19;5014421;28;20657;-43
2021/10/08 06:13:47;;;;;;;10.10;6.68;;;;;;;12.47;69.72;102341.84;5014256;28;20034;-42
2021/10/08 06:16:12;;;;;;;7.68;6.97;;;;;;;12.47;69.57;102341.84;5014425;28;20490;-42
2021/10/08 06:18:37;;;;;;;7.78;7.05;;;;;;;12.45;69.62;102340.03;5013901;28;20021;-42
2021/10/08 06:21:03;;;;;;;8.82;6.28;;;;;;;12.47;69.82;102344.50;5013547;28;20068;-42
2021/10/08 06:23:28;;;;;;;7.88;6.85;;;;;;;12.43;69.68;102333.88;5010904;28;20050;-41
2021/10/08 06:25:54;;;;;;;7.50;6.80;;;;;;;12.44;69.67;102343.56;5014407;28;20757;-42
2021/10/08 06:28:19;;;;;;;11.30;6.35;;;;;;;12.45;69.52;102347.97;5012848;28;20029;-42
2021/10/08 06:30:44;;;;;;;7.40;6.72;;;;;;;12.44;69.87;102348.88;5014017;28;20744;-42
2021/10/08 06:33:10;;;;;;;8.88;6.95;;;;;;;12.44;70.02;102356.81;5014196;28;20076;-42
2021/10/08 06:35:35;;;;;;;8.45;7.22;;;;;;;12.43;69.87;102354.13;5010832;28;20440;-43
2021/10/08 06:38:00;;;;;;;7.88;7.07;;;;;;;12.42;69.78;102358.56;5013848;28;20040;-43
2021/10/08 06:40:26;;;;;;;9.30;7.38;;;;;;;12.44;69.56;102361.22;5013545;28;20033;-42
2021/10/08 06:42:51;;;;;;;8.32;7.22;;;;;;;12.43;69.68;102362.06;5014165;28;20423;-42
2021/10/08 06:45:17;;;;;;;7.50;5.95;;;;;;;12.42;69.78;102355.91;5013456;28;20510;-42
2021/10/08 06:47:42;;;;;;;9.02;7.20;;;;;;;12.44;69.82;102361.22;5013861;28;20427;-43
2021/10/08 06:50:08;;;;;;;7.85;6.60;;;;;;;12.42;69.41;102360.31;5012905;28;20075;-42
2021/10/08 06:52:34;;;;;;;8.25;6.82;;;;;;;12.42;69.55;102371.78;5012235;28;20030;-42
2021/10/08 06:54:59;;;;;;;9.63;7.85;;;;;;;12.42;69.65;102371.78;5013392;28;20030;-42
2021/10/08 06:57:24;;;;;;;7.95;6.85;;;;;;;12.41;69.59;102367.34;5013253;28;20239;-42
2021/10/08 06:59:50;;;;;;;9.20;7.45;;;;;;;12.41;69.87;102367.34;5011853;28;20025;-42
2021/10/08 07:02:16;;;;;;;8.32;7.07;;;;;;;12.41;69.91;102367.34;5011612;28;20033;-42
2021/10/08 07:04:41;;;;;;;7.72;6.85;;;;;;;12.41;69.92;102370.00;5007866;28;20022;-42
2021/10/08 07:07:06;;;;;;;7.70;6.93;;;;;;;12.41;69.51;102367.34;5013650;28;20026;-43
2021/10/08 07:09:32;;;;;;;8.05;7.05;;;;;;;12.40;69.93;102370.88;5013009;28;20021;-42
2021/10/08 07:11:57;;;;;;;8.25;7.28;;;;;;;12.41;69.80;102372.63;5013760;28;20472;-42
2021/10/08 07:14:22;;;;;;;9.88;6.93;;;;;;;12.41;69.77;102375.28;5010655;28;20030;-41
2021/10/08 07:16:54;;;;;;;7.38;6.68;;;;;;;12.40;69.85;102369.97;5013119;28;20391;-42
2021/10/08 07:19:21;;;;;;;8.38;7.30;;;;;;;12.41;69.97;102375.28;5013020;28;20384;-42
2021/10/08 07:21:47;;;;;;;7.80;7.00;;;;;;;12.41;70.10;102377.06;5013096;28;20022;-41
2021/10/08 07:24:14;;;;;;;8.85;8.05;;;;;;;12.40;69.96;102381.47;5012679;28;20053;-42
2021/10/08 07:26:39;;;;;;;7.78;7.07;;;;;;;12.40;69.82;102383.22;5013454;28;20127;-43
2021/10/08 07:29:04;;;;;;;8.90;7.50;;;;;;;12.39;69.91;102385.00;5012535;28;20084;-42
2021/10/08 07:31:30;;;;;;;11.63;8.40;;;;;;;12.39;69.76;102387.63;5012874;28;20109;-42
2021/10/08 07:33:55;;;;;;;9.00;8.02;;;;;;;12.40;69.94;102391.16;5013235;28;20429;-42
2021/10/08 07:36:21;;;;;;;8.95;7.45;;;;;;;12.38;69.90;102385.88;5012698;28;20030;-42
2021/10/08 07:38:47;;;;;;;7.97;7.18;;;;;;;12.38;70.21;102390.25;5012298;28;20029;-42
2021/10/08 07:41:12;;;;;;;9.20;7.97;;;;;;;12.37;69.86;102394.66;5012683;28;20021;-43
2021/10/08 07:43:40;;;;;;;9.18;7.57;;;;;;;12.38;70.04;102391.16;5012362;28;20025;-43
2021/10/08 07:46:05;;;;;;;9.32;8.25;;;;;;;12.37;69.90;102386.72;5013224;28;20092;-42
2021/10/08 07:48:31;;;;;;;9.20;8.18;;;;;;;12.38;69.81;102395.56;5012328;28;20100;-42
2021/10/08 07:50:57;;;;;;;10.48;8.93;;;;;;;12.36;70.11;102398.19;5012392;28;20029;-42
2021/10/08 07:53:22;;;;;;;10.18;9.18;;;;;;;12.33;69.96;102395.50;5011053;28;20037;-44
2021/10/08 07:55:48;;;;;;;10.07;8.63;;;;;;;12.36;70.18;102398.19;5012471;28;20491;-42
2021/10/08 07:58:17;;;;;;;9.95;8.85;;;;;;;12.36;70.21;102398.19;5012247;28;20076;-42
2021/10/08 08:00:42;;;;;;;11.70;9.88;;;;;;;12.36;70.05;102398.19;5010109;28;20391;-44
2021/10/08 08:03:08;;;;;;;11.82;9.98;;;;;;;12.37;70.04;102396.44;5012292;28;20021;-42
2021/10/08 08:05:33;;;;;;;12.48;10.68;;;;;;;12.34;70.04;102397.25;5011005;28;20092;-42
2021/10/08 08:07:58;;;;;;;14.02;11.02;;;;;;;12.36;69.74;102403.47;5011953;28;20026;-42
2021/10/08 08:10:26;;;;;;;14.65;11.07;;;;;;;12.36;70.00;102398.19;5011511;28;20029;-43
2021/10/08 08:12:52;;;;;;;13.63;11.02;;;;;;;12.35;69.96;102401.69;5011590;28;20026;-43
2021/10/08 08:15:18;;;;;;;14.25;12.02;;;;;;;12.35;70.25;102396.41;5011530;28;20104;-42
2021/10/08 08:17:43;;;;;;;15.18;12.70;;;;;;;12.34;70.22;102405.19;5011141;28;20026;-42
2021/10/08 08:20:12;;;;;;;15.95;13.20;;;;;;;12.35;70.30;102399.06;5011327;28;20032;-42
2021/10/08 08:22:37;;;;;;;15.82;12.20;;;;;;;12.35;70.10;102407.00;5010836;28;20064;-43
2021/10/08 08:25:04;;;;;;;17.55;13.15;;;;;;;12.35;70.33;102404.34;5011443;28;20045;-42
2021/10/08 08:27:29;;;;;;;19.30;13.73;;;;;;;12.35;70.33;102400.81;5010669;28;20034;-42
2021/10/08 08:29:55;;;;;;;18.23;14.10;;;;;;;12.33;70.33;102400.78;5011170;28;20021;-42
2021/10/08 08:32:21;;;;;;;17.48;13.85;;;;;;;12.32;70.35;102397.25;5010397;28;20429;-43
2021/10/08 08:34:52;;;;;;;16.80;13.57;;;;;;;12.34;70.27;102399.91;5011072;28;20033;-42
2021/10/08 08:37:18;;;;;;;19.13;13.43;;;;;;;12.34;70.10;102404.31;5010454;28;20029;-42
2021/10/08 08:39:45;;;;;;;16.73;13.95;;;;;;;12.35;70.17;102404.34;5010872;28;20349;-43
2021/10/08 08:42:10;;;;;;;19.17;14.75;;;;;;;12.34;70.01;102404.31;5010966;28;20025;-42
2021/10/08 08:44:39;;;;;;;17.02;14.35;;;;;;;12.35;70.30;102401.69;5011035;28;20022;-42
2021/10/08 08:47:07;;;;;;;16.75;13.48;;;;;;;12.35;70.02;102400.81;5010919;28;20022;-42
2021/10/08 08:49:32;;;;;;;19.83;14.40;;;;;;;12.34;70.20;102399.03;5010419;28;20114;-43
2021/10/08 08:52:10;;;;;;;19.55;14.75;;;;;;;12.32;70.47;102391.97;5010717;28;20108;-42
2021/10/08 08:54:42;;;;;;;17.98;15.45;;;;;;;12.33;70.22;102387.56;5010927;28;20547;-42
2021/10/08 08:57:24;;;;;;;26.50;22.70;;;;;;;12.32;70.09;102381.41;5010686;28;20026;-42
2021/10/08 09:00:01;;;;;;;30.67;25.38;;;;;;;12.32;70.15;102389.34;5010157;28;20021;-42
2021/10/08 09:02:28;;;;;;;29.00;23.38;;;;;;;12.33;70.29;102387.56;5008745;28;20033;-42
2021/10/08 09:04:53;;;;;;;30.52;24.23;;;;;;;12.33;70.29;102387.56;5010205;28;20076;-42
2021/10/08 09:07:19;;;;;;;28.30;24.33;;;;;;;12.33;70.33;102387.56;5010564;28;20029;-43
2021/10/08 09:09:47;;;;;;;27.25;23.27;;;;;;;12.34;70.54;102388.44;5010336;28;20538;-43
2021/10/08 09:12:13;;;;;;;27.98;22.60;;;;;;;12.32;70.30;102393.72;5010331;28;20018;-43
2021/10/08 09:14:42;;;;;;;26.33;22.27;;;;;;;12.34;70.57;102393.75;5025523;28;20076;-42
2021/10/08 09:17:19;;;;;;;26.95;22.30;;;;;;;12.33;70.25;102392.84;5010333;28;20021;-42
2021/10/08 09:19:49;;;;;;;27.65;23.45;;;;;;;12.33;70.16;102398.13;5008785;28;20022;-44
2021/10/08 09:25:38;;;;;;;29.85;24.15;;;;;;;12.32;70.38;102399.91;5010015;28;20493;-42
2021/10/08 09:28:08;;;;;;;34.97;23.42;;;;;;;12.32;70.38;102391.06;5010153;28;20538;-42
2021/10/08 09:30:49;;;;;;;30.95;23.85;;;;;;;12.31;70.47;102398.13;5010421;28;20052;-42
2021/10/08 09:33:22;;;;;;;29.67;23.13;;;;;;;12.32;70.64;102397.25;5010407;28;20052;-42
2021/10/08 09:35:52;;;;;;;29.80;23.42;;;;;;;12.32;70.51;102396.38;5008723;28;20022;-42
2021/10/08 09:38:17;;;;;;;33.50;24.98;;;;;;;12.33;70.82;102398.13;5008844;28;20053;-44
2021/10/08 09:40:47;;;;;;;33.88;24.45;;;;;;;12.32;70.68;102401.66;5010482;28;20060;-42
2021/10/08 09:43:31;;;;;;;29.40;23.52;;;;;;;12.33;70.45;102400.78;5010781;28;20113;-43
2021/10/08 09:45:58;;;;;;;29.15;21.80;;;;;;;12.32;70.75;102396.38;5010905;28;20034;-42
2021/10/08 09:48:42;;;;;;;30.83;23.90;;;;;;;12.32;70.67;102393.72;5009404;28;20060;-42
2021/10/08 09:51:09;;;;;;;30.88;24.33;;;;;;;12.31;70.76;102399.91;5009784;28;20038;-42
2021/10/08 09:53:46;;;;;;;28.83;22.77;;;;;;;12.31;70.60;102394.59;5010205;28;20547;-42
2021/10/08 09:56:27;;;;;;;32.53;23.35;;;;;;;12.32;70.79;102396.38;5009940;28;20068;-44
2021/10/08 09:58:53;;;;;;;29.67;22.40;;;;;;;12.31;70.54;102395.47;5007884;28;20148;-41
2021/10/08 10:01:42;;;;;;;31.30;23.83;;;;;;;12.32;70.48;102402.56;5010389;28;20026;-43
2021/10/08 10:04:08;;;;;;;33.15;24.40;;;;;;;12.32;70.65;102401.66;5009207;28;20025;-42
2021/10/08 10:06:34;;;;;;;30.80;23.10;;;;;;;12.31;70.89;102398.13;5008868;28;20451;-41
2021/10/08 10:09:02;;;;;;;31.20;24.58;;;;;;;12.32;70.54;102407.84;5009793;28;20057;-41
2021/10/08 10:11:31;;;;;;;30.17;23.48;;;;;;;12.32;70.84;102399.00;5008269;28;20026;-42
2021/10/08 10:13:59;;;;;;;33.53;22.85;;;;;;;12.32;70.92;102404.31;5008885;28;20423;-42
2021/10/08 10:16:26;;;;;;;31.45;23.90;;;;;;;12.31;70.71;102395.47;5008759;28;20138;-41
2021/10/08 10:18:54;;;;;;;31.95;23.65;;;;;;;12.32;70.74;102405.22;5009396;28;20049;-42
2021/10/08 10:21:20;;;;;;;29.98;24.20;;;;;;;12.32;70.72;102399.00;5009953;28;20021;-42
2021/10/08 10:23:51;;;;;;;31.90;24.50;;;;;;;12.31;70.93;102403.41;5010111;28;20566;-42
2021/10/08 10:26:16;;;;;;;;;;;;;;;12.32;70.78;102412.25;5010666;28;20057;-42
2021/10/08 10:28:44;;;;;;;34.07;24.63;;;;;;;12.31;70.98;102415.78;5013097;28;19949;-42
2021/10/08 10:31:11;;;;;;;32.85;24.35;;;;;;;12.31;71.07;102406.06;5013478;28;20276;-43
2021/10/08 10:33:36;;;;;;;32.90;25.00;;;;;;;12.31;70.67;102413.13;5010197;28;20044;-42
2021/10/08 10:36:01;;;;;;;29.55;25.17;;;;;;;12.31;70.85;102406.06;5013336;28;20029;-42
2021/10/08 10:38:29;;;;;;;33.75;24.55;;;;;;;12.32;70.93;102412.25;5012940;28;20476;-42
2021/10/08 10:41:09;;;;;;;34.70;24.70;;;;;;;12.31;70.78;102411.34;5012858;28;20380;-42
2021/10/08 10:43:46;;;;;;;35.85;25.98;;;;;;;12.32;71.01;102417.53;5013130;28;20043;-42
2021/10/08 10:46:57;;;;;;;33.45;26.02;;;;;;;12.33;70.88;102414.00;5012146;28;20045;-42
2021/10/08 10:51:58;;;;;;;39.67;26.35;;;;;;;12.32;70.91;102409.59;5013177;28;20031;-42
2021/10/08 10:54:38;;;;;;;33.22;25.48;;;;;;;12.32;71.06;102412.25;5011204;28;20030;-42
2021/10/08 10:57:12;;;;;;;35.28;25.05;;;;;;;12.31;71.09;102406.06;5012672;28;20033;-43
2021/10/08 10:59:38;;;;;;;32.40;25.40;;;;;;;12.31;71.02;102411.34;4995322;28;20167;-42
2021/10/08 11:02:11;;;;;;;37.63;26.48;;;;;;;12.32;71.04;102405.22;5009368;28;20017;-42
2021/10/08 11:04:39;;;;;;;36.50;25.80;;;;;;;12.34;70.93;102413.13;5012790;28;20029;-42
2021/10/08 11:07:06;;;;;;;39.90;27.10;;;;;;;12.32;70.89;102402.56;5012969;28;20488;-42
2021/10/08 11:09:31;;;;;;;39.20;27.77;;;;;;;12.32;71.20;102391.06;5010077;28;20026;-42
2021/10/08 11:12:37;;;;;;;40.17;26.33;;;;;;;12.33;71.01;102403.44;5012442;28;20033;-42
2021/10/08 11:15:17;;;;;;;38.78;27.40;;;;;;;12.35;70.97;102400.81;5009771;28;20555;-42
2021/10/08 11:17:46;;;;;;;35.70;25.20;;;;;;;12.35;70.86;102400.81;5012504;28;20113;-43
2021/10/08 11:20:49;;;;;;;36.60;26.83;;;;;;;12.34;71.10;102388.44;5012585;28;20092;-44
2021/10/08 11:23:25;;;;;;;35.63;25.20;;;;;;;12.35;71.20;102399.06;5011290;28;20029;-42
2021/10/08 11:25:54;;;;;;;36.38;25.95;;;;;;;12.35;71.31;102391.13;5011052;28;20068;-41
2021/10/08 11:28:46;;;;;;;36.42;26.45;;;;;;;12.35;70.88;102396.41;5011952;28;20129;-42